sensor_id;sensor_type;location;lat;lon;timestamp;P1;durP1;ratioP1;P2;durP2;ratioP2
27303;SDS011;14791;52.392;13.092;2022-07-03T00:00:32;1.80;;;1.80;;
27303;SDS011;14791;52.392;13.092;2022-07-03T00:03:03;1.50;;;1.50;;
27303;SDS011;14791;52.392;13.092;2022-07-03T00:05:32;2.12;;;1.80;;
27303;SDS011;14791;52.392;13.092;2022-07-03T00:08:09;1.55;;;1.55;;
27303;SDS011;14791;52.392;13.092;2022-07-03T00:10:33;1.42;;;1.42;;
27303;SDS011;14791;52.392;13.092;2022-07-03T00:13:04;1.47;;;1.40;;
27303;SDS011;14791;52.392;13.092;2022-07-03T00:15:33;1.60;;;1.60;;
27303;SDS011;14791;52.392;13.092;2022-07-03T00:18:02;1.80;;;1.80;;
27303;SDS011;14791;52.392;13.092;2022-07-03T00:20:34;1.60;;;1.60;;
27303;SDS011;14791;52.392;13.092;2022-07-03T00:23:04;1.47;;;1.47;;
27303;SDS011;14791;52.392;13.092;2022-07-03T00:25:34;1.35;;;1.35;;
27303;SDS011;14791;52.392;13.092;2022-07-03T00:28:06;1.07;;;1.07;;
27303;SDS011;14791;52.392;13.092;2022-07-03T00:30:36;1.40;;;1.40;;
27303;SDS011;14791;52.392;13.092;2022-07-03T00:33:05;1.70;;;1.70;;
27303;SDS011;14791;52.392;13.092;2022-07-03T00:35:35;1.60;;;1.60;;
27303;SDS011;14791;52.392;13.092;2022-07-03T00:38:10;1.12;;;1.12;;
27303;SDS011;14791;52.392;13.092;2022-07-03T00:40:41;1.25;;;1.25;;
27303;SDS011;14791;52.392;13.092;2022-07-03T00:43:10;1.60;;;1.60;;
27303;SDS011;14791;52.392;13.092;2022-07-03T00:45:49;2.20;;;2.20;;
27303;SDS011;14791;52.392;13.092;2022-07-03T00:48:15;1.57;;;1.57;;
27303;SDS011;14791;52.392;13.092;2022-07-03T00:50:48;1.60;;;1.60;;
27303;SDS011;14791;52.392;13.092;2022-07-03T00:53:26;1.70;;;1.70;;
27303;SDS011;14791;52.392;13.092;2022-07-03T00:55:56;2.00;;;2.00;;
27303;SDS011;14791;52.392;13.092;2022-07-03T00:58:27;1.62;;;1.62;;
27303;SDS011;14791;52.392;13.092;2022-07-03T01:00:57;1.57;;;1.57;;
27303;SDS011;14791;52.392;13.092;2022-07-03T01:03:26;1.40;;;1.40;;
27303;SDS011;14791;52.392;13.092;2022-07-03T01:05:56;1.50;;;1.50;;
27303;SDS011;14791;52.392;13.092;2022-07-03T01:19:37;1.60;;;1.60;;
27303;SDS011;14791;52.392;13.092;2022-07-03T01:24:54;1.30;;;1.30;;
27303;SDS011;14791;52.392;13.092;2022-07-03T01:30:16;1.55;;;1.55;;
27303;SDS011;14791;52.392;13.092;2022-07-03T01:32:54;1.40;;;1.40;;
27303;SDS011;14791;52.392;13.092;2022-07-03T01:35:26;1.62;;;1.52;;
27303;SDS011;14791;52.392;13.092;2022-07-03T01:37:58;1.80;;;1.70;;
27303;SDS011;14791;52.392;13.092;2022-07-03T01:40:33;1.25;;;1.25;;
27303;SDS011;14791;52.392;13.092;2022-07-03T01:43:15;1.82;;;1.80;;
27303;SDS011;14791;52.392;13.092;2022-07-03T01:45:46;1.42;;;1.42;;
27303;SDS011;14791;52.392;13.092;2022-07-03T01:48:16;1.47;;;1.47;;
27303;SDS011;14791;52.392;13.092;2022-07-03T01:50:47;1.77;;;1.67;;
27303;SDS011;14791;52.392;13.092;2022-07-03T01:53:19;1.60;;;1.57;;
27303;SDS011;14791;52.392;13.092;2022-07-03T01:55:50;1.65;;;1.65;;
27303;SDS011;14791;52.392;13.092;2022-07-03T01:58:20;1.80;;;1.80;;
27303;SDS011;14791;52.392;13.092;2022-07-03T02:01:01;1.57;;;1.57;;
27303;SDS011;14791;52.392;13.092;2022-07-03T02:03:47;1.90;;;1.90;;
27303;SDS011;14791;52.392;13.092;2022-07-03T02:07:09;2.00;;;1.90;;
27303;SDS011;14791;52.392;13.092;2022-07-03T02:09:09;1.57;;;1.57;;
27303;SDS011;14791;52.392;13.092;2022-07-03T02:11:35;1.80;;;1.80;;
27303;SDS011;14791;52.392;13.092;2022-07-03T02:14:11;2.02;;;1.92;;
27303;SDS011;14791;52.392;13.092;2022-07-03T02:22:31;1.62;;;1.62;;
27303;SDS011;14791;52.392;13.092;2022-07-03T02:25:06;1.90;;;1.90;;
27303;SDS011;14791;52.392;13.092;2022-07-03T02:27:44;2.05;;;1.95;;
27303;SDS011;14791;52.392;13.092;2022-07-03T02:30:17;2.00;;;1.90;;
27303;SDS011;14791;52.392;13.092;2022-07-03T02:32:53;2.17;;;2.17;;
27303;SDS011;14791;52.392;13.092;2022-07-03T02:35:21;1.75;;;1.75;;
27303;SDS011;14791;52.392;13.092;2022-07-03T02:46:16;2.92;;;2.92;;
27303;SDS011;14791;52.392;13.092;2022-07-03T02:49:11;2.90;;;2.80;;
27303;SDS011;14791;52.392;13.092;2022-07-03T02:51:57;3.12;;;3.02;;
27303;SDS011;14791;52.392;13.092;2022-07-03T02:54:26;3.95;;;3.85;;
27303;SDS011;14791;52.392;13.092;2022-07-03T02:57:05;3.05;;;2.95;;
27303;SDS011;14791;52.392;13.092;2022-07-03T03:05:28;3.83;;;3.72;;
27303;SDS011;14791;52.392;13.092;2022-07-03T03:08:18;3.95;;;3.85;;
27303;SDS011;14791;52.392;13.092;2022-07-03T03:10:50;3.55;;;3.45;;
27303;SDS011;14791;52.392;13.092;2022-07-03T03:13:20;3.15;;;3.05;;
27303;SDS011;14791;52.392;13.092;2022-07-03T03:18:42;2.72;;;2.62;;
27303;SDS011;14791;52.392;13.092;2022-07-03T03:21:19;2.40;;;2.30;;
27303;SDS011;14791;52.392;13.092;2022-07-03T03:23:55;2.42;;;2.33;;
27303;SDS011;14791;52.392;13.092;2022-07-03T03:26:34;2.02;;;2.02;;
27303;SDS011;14791;52.392;13.092;2022-07-03T03:29:06;1.92;;;1.90;;
27303;SDS011;14791;52.392;13.092;2022-07-03T03:31:46;2.00;;;2.00;;
27303;SDS011;14791;52.392;13.092;2022-07-03T03:34:09;2.20;;;2.10;;
27303;SDS011;14791;52.392;13.092;2022-07-03T03:36:40;2.20;;;2.20;;
27303;SDS011;14791;52.392;13.092;2022-07-03T03:39:09;2.30;;;2.20;;
27303;SDS011;14791;52.392;13.092;2022-07-03T03:41:42;2.02;;;1.92;;
27303;SDS011;14791;52.392;13.092;2022-07-03T03:44:11;2.30;;;2.20;;
27303;SDS011;14791;52.392;13.092;2022-07-03T03:46:40;2.08;;;2.08;;
27303;SDS011;14791;52.392;13.092;2022-07-03T03:49:09;1.60;;;1.60;;
27303;SDS011;14791;52.392;13.092;2022-07-03T03:51:38;2.27;;;2.15;;
27303;SDS011;14791;52.392;13.092;2022-07-03T03:54:07;1.98;;;1.95;;
27303;SDS011;14791;52.392;13.092;2022-07-03T03:56:36;2.30;;;2.15;;
27303;SDS011;14791;52.392;13.092;2022-07-03T03:59:05;2.20;;;2.20;;
27303;SDS011;14791;52.392;13.092;2022-07-03T04:01:43;2.37;;;2.37;;
27303;SDS011;14791;52.392;13.092;2022-07-03T04:04:25;2.12;;;2.02;;
27303;SDS011;14791;52.392;13.092;2022-07-03T04:06:56;2.47;;;2.47;;
27303;SDS011;14791;52.392;13.092;2022-07-03T04:09:27;2.20;;;2.10;;
27303;SDS011;14791;52.392;13.092;2022-07-03T04:11:59;2.40;;;2.40;;
27303;SDS011;14791;52.392;13.092;2022-07-03T04:17:26;2.22;;;2.22;;
27303;SDS011;14791;52.392;13.092;2022-07-03T04:19:58;2.12;;;2.12;;
27303;SDS011;14791;52.392;13.092;2022-07-03T04:22:27;2.65;;;2.55;;
27303;SDS011;14791;52.392;13.092;2022-07-03T04:25:05;2.35;;;2.25;;
27303;SDS011;14791;52.392;13.092;2022-07-03T04:27:43;2.37;;;2.27;;
27303;SDS011;14791;52.392;13.092;2022-07-03T04:30:29;2.12;;;2.02;;
27303;SDS011;14791;52.392;13.092;2022-07-03T04:32:58;2.20;;;2.20;;
27303;SDS011;14791;52.392;13.092;2022-07-03T04:38:26;2.35;;;2.35;;
27303;SDS011;14791;52.392;13.092;2022-07-03T04:40:55;2.12;;;2.08;;
27303;SDS011;14791;52.392;13.092;2022-07-03T04:43:24;2.12;;;2.05;;
27303;SDS011;14791;52.392;13.092;2022-07-03T04:45:53;2.33;;;2.22;;
27303;SDS011;14791;52.392;13.092;2022-07-03T04:48:22;2.25;;;2.25;;
27303;SDS011;14791;52.392;13.092;2022-07-03T04:50:50;2.40;;;2.30;;
27303;SDS011;14791;52.392;13.092;2022-07-03T04:53:19;2.37;;;2.37;;
27303;SDS011;14791;52.392;13.092;2022-07-03T04:55:48;2.42;;;2.42;;
27303;SDS011;14791;52.392;13.092;2022-07-03T04:58:17;2.35;;;2.35;;
27303;SDS011;14791;52.392;13.092;2022-07-03T05:00:46;2.40;;;2.40;;
27303;SDS011;14791;52.392;13.092;2022-07-03T05:03:15;2.35;;;2.25;;
27303;SDS011;14791;52.392;13.092;2022-07-03T05:05:49;2.30;;;2.27;;
27303;SDS011;14791;52.392;13.092;2022-07-03T05:08:21;2.08;;;2.08;;
27303;SDS011;14791;52.392;13.092;2022-07-03T05:10:50;2.27;;;2.27;;
27303;SDS011;14791;52.392;13.092;2022-07-03T05:13:19;2.08;;;2.08;;
27303;SDS011;14791;52.392;13.092;2022-07-03T05:15:48;2.50;;;2.40;;
27303;SDS011;14791;52.392;13.092;2022-07-03T05:18:17;2.27;;;2.27;;
27303;SDS011;14791;52.392;13.092;2022-07-03T05:20:46;2.10;;;2.10;;
27303;SDS011;14791;52.392;13.092;2022-07-03T05:23:15;2.02;;;1.95;;
27303;SDS011;14791;52.392;13.092;2022-07-03T05:25:44;2.00;;;2.00;;
27303;SDS011;14791;52.392;13.092;2022-07-03T05:28:13;1.70;;;1.70;;
27303;SDS011;14791;52.392;13.092;2022-07-03T05:30:42;1.87;;;1.87;;
27303;SDS011;14791;52.392;13.092;2022-07-03T05:33:11;2.58;;;2.47;;
27303;SDS011;14791;52.392;13.092;2022-07-03T05:35:41;1.98;;;1.95;;
27303;SDS011;14791;52.392;13.092;2022-07-03T05:38:10;2.33;;;2.25;;
27303;SDS011;14791;52.392;13.092;2022-07-03T05:40:40;2.12;;;2.12;;
27303;SDS011;14791;52.392;13.092;2022-07-03T05:43:09;2.20;;;2.10;;
27303;SDS011;14791;52.392;13.092;2022-07-03T05:45:38;2.02;;;2.02;;
27303;SDS011;14791;52.392;13.092;2022-07-03T05:48:06;2.15;;;2.12;;
27303;SDS011;14791;52.392;13.092;2022-07-03T05:50:35;2.40;;;2.40;;
27303;SDS011;14791;52.392;13.092;2022-07-03T05:53:04;1.98;;;1.98;;
27303;SDS011;14791;52.392;13.092;2022-07-03T05:55:33;2.12;;;2.12;;
27303;SDS011;14791;52.392;13.092;2022-07-03T05:58:02;1.75;;;1.75;;
27303;SDS011;14791;52.392;13.092;2022-07-03T06:00:31;2.17;;;2.10;;
27303;SDS011;14791;52.392;13.092;2022-07-03T06:03:00;1.90;;;1.90;;
27303;SDS011;14791;52.392;13.092;2022-07-03T06:05:29;1.60;;;1.60;;
27303;SDS011;14791;52.392;13.092;2022-07-03T06:07:59;2.12;;;2.10;;
27303;SDS011;14791;52.392;13.092;2022-07-03T06:10:28;1.85;;;1.85;;
27303;SDS011;14791;52.392;13.092;2022-07-03T06:12:57;1.40;;;1.40;;
27303;SDS011;14791;52.392;13.092;2022-07-03T06:15:26;1.70;;;1.70;;
27303;SDS011;14791;52.392;13.092;2022-07-03T06:17:55;1.80;;;1.70;;
27303;SDS011;14791;52.392;13.092;2022-07-03T06:20:25;2.10;;;2.00;;
27303;SDS011;14791;52.392;13.092;2022-07-03T06:22:54;1.85;;;1.85;;
27303;SDS011;14791;52.392;13.092;2022-07-03T06:25:23;1.60;;;1.60;;
27303;SDS011;14791;52.392;13.092;2022-07-03T06:27:52;1.90;;;1.90;;
27303;SDS011;14791;52.392;13.092;2022-07-03T06:30:21;1.52;;;1.52;;
27303;SDS011;14791;52.392;13.092;2022-07-03T06:32:50;1.60;;;1.60;;
27303;SDS011;14791;52.392;13.092;2022-07-03T06:35:19;2.12;;;2.02;;
27303;SDS011;14791;52.392;13.092;2022-07-03T06:37:48;1.57;;;1.57;;
27303;SDS011;14791;52.392;13.092;2022-07-03T06:40:16;1.30;;;1.30;;
27303;SDS011;14791;52.392;13.092;2022-07-03T06:42:45;1.45;;;1.45;;
27303;SDS011;14791;52.392;13.092;2022-07-03T06:45:14;1.70;;;1.70;;
27303;SDS011;14791;52.392;13.092;2022-07-03T06:47:43;2.20;;;1.50;;
27303;SDS011;14791;52.392;13.092;2022-07-03T06:50:12;1.40;;;1.40;;
27303;SDS011;14791;52.392;13.092;2022-07-03T06:52:41;1.45;;;1.45;;
27303;SDS011;14791;52.392;13.092;2022-07-03T06:55:10;2.65;;;1.77;;
27303;SDS011;14791;52.392;13.092;2022-07-03T06:57:39;1.20;;;1.20;;
27303;SDS011;14791;52.392;13.092;2022-07-03T07:00:08;1.60;;;1.60;;
27303;SDS011;14791;52.392;13.092;2022-07-03T07:02:37;1.17;;;1.17;;
27303;SDS011;14791;52.392;13.092;2022-07-03T07:05:06;1.30;;;1.30;;
27303;SDS011;14791;52.392;13.092;2022-07-03T07:07:35;1.30;;;1.30;;
27303;SDS011;14791;52.392;13.092;2022-07-03T07:10:04;1.30;;;1.30;;
27303;SDS011;14791;52.392;13.092;2022-07-03T07:12:33;1.30;;;1.30;;
27303;SDS011;14791;52.392;13.092;2022-07-03T07:15:02;0.95;;;0.95;;
27303;SDS011;14791;52.392;13.092;2022-07-03T07:17:32;1.20;;;1.20;;
27303;SDS011;14791;52.392;13.092;2022-07-03T07:20:00;1.17;;;1.17;;
27303;SDS011;14791;52.392;13.092;2022-07-03T07:22:30;1.35;;;1.32;;
27303;SDS011;14791;52.392;13.092;2022-07-03T07:24:59;1.52;;;1.42;;
27303;SDS011;14791;52.392;13.092;2022-07-03T07:27:28;1.30;;;1.30;;
27303;SDS011;14791;52.392;13.092;2022-07-03T07:29:57;1.30;;;1.30;;
27303;SDS011;14791;52.392;13.092;2022-07-03T07:32:26;1.37;;;1.37;;
27303;SDS011;14791;52.392;13.092;2022-07-03T07:34:55;1.30;;;1.30;;
27303;SDS011;14791;52.392;13.092;2022-07-03T07:37:24;1.42;;;1.00;;
27303;SDS011;14791;52.392;13.092;2022-07-03T07:39:52;1.40;;;1.30;;
27303;SDS011;14791;52.392;13.092;2022-07-03T07:42:21;0.95;;;0.95;;
27303;SDS011;14791;52.392;13.092;2022-07-03T07:44:51;1.10;;;1.10;;
27303;SDS011;14791;52.392;13.092;2022-07-03T07:47:20;1.02;;;1.02;;
27303;SDS011;14791;52.392;13.092;2022-07-03T07:49:49;1.22;;;1.22;;
27303;SDS011;14791;52.392;13.092;2022-07-03T07:52:18;1.05;;;1.05;;
27303;SDS011;14791;52.392;13.092;2022-07-03T07:54:46;1.25;;;1.25;;
27303;SDS011;14791;52.392;13.092;2022-07-03T07:57:15;0.93;;;0.93;;
27303;SDS011;14791;52.392;13.092;2022-07-03T07:59:44;1.05;;;1.05;;
27303;SDS011;14791;52.392;13.092;2022-07-03T08:02:13;7.28;;;7.05;;
27303;SDS011;14791;52.392;13.092;2022-07-03T08:04:43;2.37;;;2.37;;
27303;SDS011;14791;52.392;13.092;2022-07-03T08:07:30;1.50;;;1.50;;
27303;SDS011;14791;52.392;13.092;2022-07-03T08:09:59;1.50;;;1.50;;
27303;SDS011;14791;52.392;13.092;2022-07-03T08:12:28;1.42;;;1.42;;
27303;SDS011;14791;52.392;13.092;2022-07-03T08:14:57;1.82;;;1.72;;
27303;SDS011;14791;52.392;13.092;2022-07-03T08:17:25;1.90;;;1.80;;
27303;SDS011;14791;52.392;13.092;2022-07-03T08:19:54;1.30;;;1.30;;
27303;SDS011;14791;52.392;13.092;2022-07-03T08:22:23;1.32;;;1.32;;
27303;SDS011;14791;52.392;13.092;2022-07-03T08:24:52;1.10;;;1.10;;
27303;SDS011;14791;52.392;13.092;2022-07-03T08:27:21;1.20;;;1.20;;
27303;SDS011;14791;52.392;13.092;2022-07-03T08:29:50;1.12;;;1.12;;
27303;SDS011;14791;52.392;13.092;2022-07-03T08:32:19;1.02;;;1.02;;
27303;SDS011;14791;52.392;13.092;2022-07-03T08:34:47;1.25;;;1.25;;
27303;SDS011;14791;52.392;13.092;2022-07-03T08:37:16;1.27;;;1.27;;
27303;SDS011;14791;52.392;13.092;2022-07-03T08:39:45;1.27;;;1.27;;
27303;SDS011;14791;52.392;13.092;2022-07-03T08:42:14;1.07;;;1.07;;
27303;SDS011;14791;52.392;13.092;2022-07-03T08:44:44;1.15;;;1.15;;
27303;SDS011;14791;52.392;13.092;2022-07-03T08:47:14;1.10;;;1.10;;
27303;SDS011;14791;52.392;13.092;2022-07-03T08:49:44;1.10;;;1.10;;
27303;SDS011;14791;52.392;13.092;2022-07-03T08:52:16;1.52;;;1.47;;
27303;SDS011;14791;52.392;13.092;2022-07-03T08:54:45;1.12;;;1.12;;
27303;SDS011;14791;52.392;13.092;2022-07-03T08:57:14;1.27;;;1.15;;
27303;SDS011;14791;52.392;13.092;2022-07-03T08:59:45;1.20;;;1.20;;
27303;SDS011;14791;52.392;13.092;2022-07-03T09:02:16;1.20;;;1.20;;
27303;SDS011;14791;52.392;13.092;2022-07-03T09:04:46;1.22;;;1.22;;
27303;SDS011;14791;52.392;13.092;2022-07-03T09:07:17;1.65;;;1.12;;
27303;SDS011;14791;52.392;13.092;2022-07-03T09:09:46;1.20;;;1.20;;
27303;SDS011;14791;52.392;13.092;2022-07-03T09:12:15;1.25;;;1.25;;
27303;SDS011;14791;52.392;13.092;2022-07-03T09:14:44;1.35;;;1.35;;
27303;SDS011;14791;52.392;13.092;2022-07-03T09:17:13;1.12;;;1.12;;
27303;SDS011;14791;52.392;13.092;2022-07-03T09:19:43;1.20;;;1.20;;
27303;SDS011;14791;52.392;13.092;2022-07-03T09:22:24;1.70;;;1.70;;
27303;SDS011;14791;52.392;13.092;2022-07-03T09:27:49;1.50;;;1.50;;
27303;SDS011;14791;52.392;13.092;2022-07-03T09:30:19;1.20;;;1.20;;
27303;SDS011;14791;52.392;13.092;2022-07-03T09:32:48;1.10;;;1.10;;
27303;SDS011;14791;52.392;13.092;2022-07-03T09:35:18;1.32;;;1.32;;
27303;SDS011;14791;52.392;13.092;2022-07-03T09:38:00;1.55;;;1.55;;
27303;SDS011;14791;52.392;13.092;2022-07-03T09:43:23;1.30;;;1.30;;
27303;SDS011;14791;52.392;13.092;2022-07-03T09:46:01;1.40;;;1.40;;
27303;SDS011;14791;52.392;13.092;2022-07-03T09:48:32;1.12;;;1.12;;
27303;SDS011;14791;52.392;13.092;2022-07-03T09:53:56;1.17;;;1.17;;
27303;SDS011;14791;52.392;13.092;2022-07-03T09:56:34;2.17;;;1.20;;
27303;SDS011;14791;52.392;13.092;2022-07-03T09:59:08;1.10;;;1.10;;
27303;SDS011;14791;52.392;13.092;2022-07-03T10:01:46;1.60;;;1.60;;
27303;SDS011;14791;52.392;13.092;2022-07-03T10:04:16;1.40;;;1.40;;
27303;SDS011;14791;52.392;13.092;2022-07-03T10:06:50;1.20;;;1.20;;
27303;SDS011;14791;52.392;13.092;2022-07-03T10:09:26;1.30;;;1.30;;
27303;SDS011;14791;52.392;13.092;2022-07-03T10:11:57;1.10;;;1.10;;
27303;SDS011;14791;52.392;13.092;2022-07-03T10:14:28;1.40;;;1.40;;
27303;SDS011;14791;52.392;13.092;2022-07-03T10:16:59;1.02;;;1.02;;
27303;SDS011;14791;52.392;13.092;2022-07-03T10:19:30;1.20;;;1.20;;
27303;SDS011;14791;52.392;13.092;2022-07-03T10:22:01;1.55;;;1.55;;
27303;SDS011;14791;52.392;13.092;2022-07-03T10:24:32;1.30;;;1.30;;
27303;SDS011;14791;52.392;13.092;2022-07-03T10:27:01;1.15;;;1.15;;
27303;SDS011;14791;52.392;13.092;2022-07-03T10:29:30;1.17;;;1.17;;
27303;SDS011;14791;52.392;13.092;2022-07-03T10:32:00;1.20;;;1.20;;
27303;SDS011;14791;52.392;13.092;2022-07-03T10:34:29;1.40;;;1.35;;
27303;SDS011;14791;52.392;13.092;2022-07-03T10:36:59;1.25;;;1.10;;
27303;SDS011;14791;52.392;13.092;2022-07-03T10:39:32;0.98;;;0.98;;
27303;SDS011;14791;52.392;13.092;2022-07-03T10:42:15;1.00;;;1.00;;
27303;SDS011;14791;52.392;13.092;2022-07-03T10:50:13;0.80;;;0.80;;
27303;SDS011;14791;52.392;13.092;2022-07-03T10:52:44;1.40;;;1.40;;
27303;SDS011;14791;52.392;13.092;2022-07-03T10:55:14;1.20;;;1.20;;
27303;SDS011;14791;52.392;13.092;2022-07-03T11:00:51;0.90;;;0.90;;
27303;SDS011;14791;52.392;13.092;2022-07-03T11:09:15;1.30;;;1.30;;
27303;SDS011;14791;52.392;13.092;2022-07-03T11:11:45;1.02;;;1.02;;
27303;SDS011;14791;52.392;13.092;2022-07-03T11:14:27;1.47;;;1.37;;
27303;SDS011;14791;52.392;13.092;2022-07-03T11:19:46;0.88;;;0.88;;
27303;SDS011;14791;52.392;13.092;2022-07-03T11:22:50;0.82;;;0.82;;
27303;SDS011;14791;52.392;13.092;2022-07-03T11:25:20;0.85;;;0.85;;
27303;SDS011;14791;52.392;13.092;2022-07-03T11:27:50;1.10;;;1.10;;
27303;SDS011;14791;52.392;13.092;2022-07-03T11:30:20;0.90;;;0.90;;
27303;SDS011;14791;52.392;13.092;2022-07-03T11:32:51;1.17;;;1.17;;
27303;SDS011;14791;52.392;13.092;2022-07-03T11:38:16;0.90;;;0.90;;
27303;SDS011;14791;52.392;13.092;2022-07-03T11:40:47;1.00;;;1.00;;
27303;SDS011;14791;52.392;13.092;2022-07-03T11:43:18;1.07;;;1.07;;
27303;SDS011;14791;52.392;13.092;2022-07-03T11:45:48;1.10;;;1.10;;
27303;SDS011;14791;52.392;13.092;2022-07-03T11:48:18;0.95;;;0.95;;
27303;SDS011;14791;52.392;13.092;2022-07-03T11:50:49;0.80;;;0.80;;
27303;SDS011;14791;52.392;13.092;2022-07-03T11:53:23;0.95;;;0.95;;
27303;SDS011;14791;52.392;13.092;2022-07-03T11:56:01;0.95;;;0.95;;
27303;SDS011;14791;52.392;13.092;2022-07-03T12:04:17;1.15;;;1.02;;
27303;SDS011;14791;52.392;13.092;2022-07-03T12:06:47;0.90;;;0.90;;
27303;SDS011;14791;52.392;13.092;2022-07-03T12:09:25;0.85;;;0.85;;
27303;SDS011;14791;52.392;13.092;2022-07-03T12:11:58;1.10;;;1.10;;
27303;SDS011;14791;52.392;13.092;2022-07-03T12:14:47;1.37;;;1.00;;
27303;SDS011;14791;52.392;13.092;2022-07-03T12:17:21;0.88;;;0.88;;
27303;SDS011;14791;52.392;13.092;2022-07-03T12:19:56;0.80;;;0.80;;
27303;SDS011;14791;52.392;13.092;2022-07-03T12:22:30;1.10;;;1.10;;
27303;SDS011;14791;52.392;13.092;2022-07-03T12:25:03;0.80;;;0.80;;
27303;SDS011;14791;52.392;13.092;2022-07-03T12:27:35;0.90;;;0.90;;
27303;SDS011;14791;52.392;13.092;2022-07-03T12:30:09;1.07;;;1.00;;
27303;SDS011;14791;52.392;13.092;2022-07-03T12:32:39;0.90;;;0.90;;
27303;SDS011;14791;52.392;13.092;2022-07-03T12:35:08;1.00;;;1.00;;
27303;SDS011;14791;52.392;13.092;2022-07-03T12:37:38;0.93;;;0.93;;
27303;SDS011;14791;52.392;13.092;2022-07-03T12:40:10;0.88;;;0.88;;
27303;SDS011;14791;52.392;13.092;2022-07-03T12:45:15;0.90;;;0.90;;
27303;SDS011;14791;52.392;13.092;2022-07-03T12:47:46;1.00;;;1.00;;
27303;SDS011;14791;52.392;13.092;2022-07-03T12:50:26;0.90;;;0.90;;
27303;SDS011;14791;52.392;13.092;2022-07-03T12:52:57;0.80;;;0.80;;
27303;SDS011;14791;52.392;13.092;2022-07-03T12:55:26;0.82;;;0.82;;
27303;SDS011;14791;52.392;13.092;2022-07-03T12:58:09;0.78;;;0.78;;
27303;SDS011;14791;52.392;13.092;2022-07-03T13:00:57;0.93;;;0.93;;
27303;SDS011;14791;52.392;13.092;2022-07-03T13:03:34;1.22;;;1.22;;
27303;SDS011;14791;52.392;13.092;2022-07-03T13:05:59;3.20;;;1.02;;
27303;SDS011;14791;52.392;13.092;2022-07-03T13:08:28;0.93;;;0.93;;
27303;SDS011;14791;52.392;13.092;2022-07-03T13:10:57;1.07;;;1.07;;
27303;SDS011;14791;52.392;13.092;2022-07-03T13:13:27;1.07;;;1.07;;
27303;SDS011;14791;52.392;13.092;2022-07-03T13:15:59;0.95;;;0.95;;
27303;SDS011;14791;52.392;13.092;2022-07-03T13:18:28;0.93;;;0.93;;
27303;SDS011;14791;52.392;13.092;2022-07-03T13:20:57;1.20;;;1.20;;
27303;SDS011;14791;52.392;13.092;2022-07-03T13:23:26;0.90;;;0.90;;
27303;SDS011;14791;52.392;13.092;2022-07-03T13:25:54;0.93;;;0.93;;
27303;SDS011;14791;52.392;13.092;2022-07-03T13:28:23;0.90;;;0.90;;
27303;SDS011;14791;52.392;13.092;2022-07-03T13:30:52;0.98;;;0.98;;
27303;SDS011;14791;52.392;13.092;2022-07-03T13:33:21;1.30;;;1.30;;
27303;SDS011;14791;52.392;13.092;2022-07-03T13:35:50;1.25;;;1.25;;
27303;SDS011;14791;52.392;13.092;2022-07-03T13:38:19;0.95;;;0.95;;
27303;SDS011;14791;52.392;13.092;2022-07-03T13:40:48;1.07;;;1.07;;
27303;SDS011;14791;52.392;13.092;2022-07-03T13:43:17;1.10;;;1.10;;
27303;SDS011;14791;52.392;13.092;2022-07-03T13:45:46;0.90;;;0.90;;
27303;SDS011;14791;52.392;13.092;2022-07-03T13:48:15;0.93;;;0.93;;
27303;SDS011;14791;52.392;13.092;2022-07-03T13:50:44;1.00;;;1.00;;
27303;SDS011;14791;52.392;13.092;2022-07-03T13:53:13;1.12;;;1.12;;
27303;SDS011;14791;52.392;13.092;2022-07-03T13:55:42;0.90;;;0.90;;
27303;SDS011;14791;52.392;13.092;2022-07-03T13:58:11;0.90;;;0.90;;
27303;SDS011;14791;52.392;13.092;2022-07-03T14:00:40;0.90;;;0.90;;
27303;SDS011;14791;52.392;13.092;2022-07-03T14:03:10;1.05;;;1.05;;
27303;SDS011;14791;52.392;13.092;2022-07-03T14:05:39;0.90;;;0.90;;
27303;SDS011;14791;52.392;13.092;2022-07-03T14:08:08;1.20;;;1.20;;
27303;SDS011;14791;52.392;13.092;2022-07-03T14:10:38;1.15;;;1.15;;
27303;SDS011;14791;52.392;13.092;2022-07-03T14:13:07;0.90;;;0.90;;
27303;SDS011;14791;52.392;13.092;2022-07-03T14:15:36;1.10;;;1.10;;
27303;SDS011;14791;52.392;13.092;2022-07-03T14:18:05;0.98;;;0.98;;
27303;SDS011;14791;52.392;13.092;2022-07-03T14:20:34;1.20;;;1.10;;
27303;SDS011;14791;52.392;13.092;2022-07-03T14:23:03;1.20;;;1.20;;
27303;SDS011;14791;52.392;13.092;2022-07-03T14:25:32;1.17;;;1.17;;
27303;SDS011;14791;52.392;13.092;2022-07-03T14:28:01;1.35;;;1.35;;
27303;SDS011;14791;52.392;13.092;2022-07-03T14:30:49;1.07;;;1.07;;
27303;SDS011;14791;52.392;13.092;2022-07-03T14:33:36;1.17;;;1.17;;
27303;SDS011;14791;52.392;13.092;2022-07-03T14:36:05;1.35;;;1.35;;
27303;SDS011;14791;52.392;13.092;2022-07-03T14:38:34;1.00;;;1.00;;
27303;SDS011;14791;52.392;13.092;2022-07-03T14:41:03;1.27;;;1.27;;
27303;SDS011;14791;52.392;13.092;2022-07-03T14:43:32;1.17;;;1.17;;
27303;SDS011;14791;52.392;13.092;2022-07-03T14:46:01;1.30;;;1.30;;
27303;SDS011;14791;52.392;13.092;2022-07-03T14:48:30;1.27;;;1.27;;
27303;SDS011;14791;52.392;13.092;2022-07-03T14:50:59;1.12;;;1.12;;
27303;SDS011;14791;52.392;13.092;2022-07-03T14:53:28;1.67;;;1.67;;
27303;SDS011;14791;52.392;13.092;2022-07-03T14:55:57;1.30;;;1.30;;
27303;SDS011;14791;52.392;13.092;2022-07-03T14:58:27;1.22;;;1.22;;
27303;SDS011;14791;52.392;13.092;2022-07-03T15:00:57;1.20;;;1.20;;
27303;SDS011;14791;52.392;13.092;2022-07-03T15:03:28;1.17;;;1.17;;
27303;SDS011;14791;52.392;13.092;2022-07-03T15:05:59;1.00;;;1.00;;
27303;SDS011;14791;52.392;13.092;2022-07-03T15:11:20;1.10;;;1.10;;
27303;SDS011;14791;52.392;13.092;2022-07-03T15:14:09;1.10;;;1.10;;
27303;SDS011;14791;52.392;13.092;2022-07-03T15:16:41;1.10;;;1.10;;
27303;SDS011;14791;52.392;13.092;2022-07-03T15:19:12;1.17;;;1.17;;
27303;SDS011;14791;52.392;13.092;2022-07-03T15:21:41;1.00;;;1.00;;
27303;SDS011;14791;52.392;13.092;2022-07-03T15:24:11;1.00;;;1.00;;
27303;SDS011;14791;52.392;13.092;2022-07-03T15:26:42;1.00;;;1.00;;
27303;SDS011;14791;52.392;13.092;2022-07-03T15:29:13;2.00;;;2.00;;
27303;SDS011;14791;52.392;13.092;2022-07-03T15:31:43;1.50;;;1.50;;
27303;SDS011;14791;52.392;13.092;2022-07-03T15:34:12;2.27;;;1.15;;
27303;SDS011;14791;52.392;13.092;2022-07-03T15:36:44;1.20;;;1.20;;
27303;SDS011;14791;52.392;13.092;2022-07-03T15:39:22;1.27;;;1.27;;
27303;SDS011;14791;52.392;13.092;2022-07-03T15:45:06;1.60;;;1.50;;
27303;SDS011;14791;52.392;13.092;2022-07-03T15:50:33;1.40;;;1.40;;
27303;SDS011;14791;52.392;13.092;2022-07-03T15:53:00;0.98;;;0.98;;
27303;SDS011;14791;52.392;13.092;2022-07-03T15:55:32;0.93;;;0.93;;
27303;SDS011;14791;52.392;13.092;2022-07-03T15:58:04;1.20;;;1.10;;
27303;SDS011;14791;52.392;13.092;2022-07-03T16:00:34;1.40;;;1.30;;
27303;SDS011;14791;52.392;13.092;2022-07-03T16:03:09;1.25;;;1.25;;
27303;SDS011;14791;52.392;13.092;2022-07-03T16:05:40;1.10;;;1.10;;
27303;SDS011;14791;52.392;13.092;2022-07-03T16:08:10;1.20;;;1.20;;
27303;SDS011;14791;52.392;13.092;2022-07-03T16:10:41;1.00;;;1.00;;
27303;SDS011;14791;52.392;13.092;2022-07-03T16:13:10;1.30;;;1.30;;
27303;SDS011;14791;52.392;13.092;2022-07-03T16:15:40;1.07;;;1.07;;
27303;SDS011;14791;52.392;13.092;2022-07-03T16:18:10;1.10;;;1.10;;
27303;SDS011;14791;52.392;13.092;2022-07-03T16:20:40;1.30;;;1.10;;
27303;SDS011;14791;52.392;13.092;2022-07-03T16:23:11;1.30;;;1.30;;
27303;SDS011;14791;52.392;13.092;2022-07-03T16:25:41;1.02;;;1.02;;
27303;SDS011;14791;52.392;13.092;2022-07-03T16:28:10;1.22;;;1.22;;